Terminal Aerodrome Forecast
Issued by NWS

Home | Current Version | Previous Version | Text Only | Print | Product List | Glossary On
Versions: 1 2 3 4 5 6 7 8 9 10 11 12 13 14 15 16 17 18 19 20 21 22 23
000
FTUS43 KDMX 012331
TAFFOD
TAF
KFOD 012331Z 0200/0224 21008KT P6SM SCT300
     FM020600 21008KT P6SM VCTS SCT050CB BKN100
     FM021000 22009KT P6SM FEW050 BKN120
     FM021300 22012G17KT P6SM SKC
     FM021800 28012G19KT P6SM SCT050=

USA.gov is the U.S. government's official web portal to all federal, state and local government web resources and services.